Bonaire, Georgia
Current Conditions -  °F | °C
As of 6:58 AM on Monday 26 Jan 2015 (Local Time) from KWRB Reporting Station
Scattered Clouds Scattered Clouds  
Wind Chill: 40°   Ceiling: Unl
Heat Index: 45°   Visibility: 10mi
Dew Point: 40°   Wind: 8mph
Humidity: 82%   Direction: 280°W
Pressure: 29.79"   Gusts: NA
Location:  32.54°N, 83.6°W
Report Text: KWRB 261158Z AUTO 28007KT 10SM SCT033 07/04 A2979 RMK AO2 SLP091 T00710042 10106 20071 52021
Loading
Personal Weather Stations






























Interactive Weather Map New forecast layout! Learn more

10-Day Weather Forecast

Advertisements
Track Severe Weather on mobile